createdAt,value
2024-02-15T00:00:03.092Z,99425.34
2024-02-15T00:02:30.245Z,99419.31
2024-02-15T00:04:58.014Z,99422.75
2024-02-15T00:07:25.038Z,99418.41
2024-02-15T00:09:52.644Z,99415.81
2024-02-15T00:12:19.847Z,99427.06
2024-02-15T00:14:46.963Z,99433.16
2024-02-15T00:17:14.265Z,99443.56
2024-02-15T00:19:42.986Z,99440.97
2024-02-15T00:22:11.058Z,99445.25
2024-02-15T00:24:43.151Z,99454.81
2024-02-15T00:27:12.394Z,99457.41
2024-02-15T00:29:41.763Z,99460.88
2024-02-15T00:32:09.324Z,99471.28
2024-02-15T00:34:36.607Z,99463.50
2024-02-15T00:37:04.067Z,99472.13
2024-02-15T00:39:30.870Z,99464.31
2024-02-15T00:41:57.730Z,99464.28
2024-02-15T00:44:24.764Z,99454.78
2024-02-15T00:46:51.978Z,99451.28
2024-02-15T00:49:21.879Z,99440.00
2024-02-15T00:51:49.004Z,99441.75
2024-02-15T00:54:16.599Z,99448.63
2024-02-15T00:56:43.605Z,99446.03
2024-02-15T00:59:10.886Z,99447.75
2024-02-15T01:01:42.189Z,99437.34
2024-02-15T01:04:09.275Z,99430.38
2024-02-15T01:06:36.150Z,99438.19
2024-02-15T01:09:04.534Z,99437.31
2024-02-15T01:11:36.161Z,99444.25
2024-02-15T01:14:03.108Z,99430.38
2024-02-15T01:16:30.188Z,99433.00
2024-02-15T01:18:57.217Z,99429.50
2024-02-15T01:21:24.188Z,99426.91
2024-02-15T01:23:51.184Z,99426.91
2024-02-15T01:26:18.037Z,99426.03
2024-02-15T01:28:44.940Z,99430.34
2024-02-15T01:31:12.591Z,99434.66
2024-02-15T01:33:39.634Z,99439.91
2024-02-15T01:36:07.203Z,99437.31
2024-02-15T01:38:34.167Z,99429.47
2024-02-15T01:41:01.076Z,99426.03
2024-02-15T01:43:27.891Z,99421.72
2024-02-15T01:45:55.270Z,99416.53
2024-02-15T01:48:22.317Z,99424.31
2024-02-15T01:50:49.974Z,99413.06
2024-02-15T01:53:18.647Z,99412.22
2024-02-15T01:55:45.619Z,99430.38
2024-02-15T01:58:12.819Z,99424.31
2024-02-15T02:00:40.925Z,99421.72
2024-02-15T02:03:11.002Z,99408.72
2024-02-15T02:05:38.563Z,99404.41
2024-02-15T02:08:10.627Z,99425.19
2024-02-15T02:10:41.204Z,99420.00
2024-02-15T02:13:08.214Z,99410.47
2024-02-15T02:15:35.697Z,99411.34
2024-02-15T02:18:03.143Z,99414.84
2024-02-15T02:20:30.465Z,99404.44
2024-02-15T02:23:14.587Z,99409.63
2024-02-15T02:25:43.677Z,99401.84
2024-02-15T02:28:11.317Z,99394.03
2024-02-15T02:30:38.467Z,99407.03
2024-02-15T02:33:08.713Z,99412.25
2024-02-15T02:35:35.603Z,99405.31
2024-02-15T02:38:03.877Z,99398.41
2024-02-15T02:40:30.789Z,99383.69
2024-02-15T02:43:00.442Z,99381.97
2024-02-15T02:45:27.360Z,99385.44
2024-02-15T02:47:55.155Z,99375.09
2024-02-15T02:50:24.079Z,99371.66
2024-02-15T02:52:51.503Z,99363.88
2024-02-15T02:55:18.786Z,99369.13
2024-02-15T02:57:45.597Z,99374.31
2024-02-15T03:00:16.318Z,99374.28
2024-02-15T03:02:47.759Z,99372.53
2024-02-15T03:05:14.972Z,99375.09
2024-02-15T03:07:42.317Z,99370.78
2024-02-15T03:10:11.078Z,99372.47
2024-02-15T03:12:38.942Z,99364.66
2024-02-15T03:15:12.539Z,99366.41
2024-02-15T03:17:42.752Z,99353.34
2024-02-15T03:20:28.733Z,99343.81
2024-02-15T03:23:00.049Z,99339.47
2024-02-15T03:25:30.074Z,99345.50
2024-02-15T03:28:04.553Z,99352.44
2024-02-15T03:30:35.288Z,99335.09
2024-02-15T03:33:06.683Z,99334.22
2024-02-15T03:35:34.250Z,99334.22
2024-02-15T03:38:02.218Z,99329.88
2024-02-15T03:40:30.229Z,99323.81
2024-02-15T03:42:57.711Z,99316.84
2024-02-15T03:45:26.320Z,99316.88
2024-02-15T03:47:54.143Z,99327.31
2024-02-15T03:50:23.251Z,99321.25
2024-02-15T03:52:51.502Z,99315.16
2024-02-15T03:55:18.971Z,99324.66
2024-02-15T03:57:47.181Z,99323.81
2024-02-15T04:00:22.858Z,99324.69
2024-02-15T04:02:50.759Z,99329.91
2024-02-15T04:05:20.109Z,99328.16
2024-02-15T04:07:47.371Z,99313.41
2024-02-15T04:10:14.366Z,99325.56
2024-02-15T04:12:43.679Z,99319.50
2024-02-15T04:15:14.472Z,99323.81
2024-02-15T04:17:43.653Z,99328.13
2024-02-15T04:20:13.443Z,99322.91
2024-02-15T04:22:43.803Z,99331.56
2024-02-15T04:25:12.092Z,99322.91
2024-02-15T04:27:40.022Z,99325.50
2024-02-15T04:30:09.295Z,99327.22
2024-02-15T04:32:37.898Z,99327.22
2024-02-15T04:35:08.417Z,99329.84
2024-02-15T04:37:37.800Z,99334.13
2024-02-15T04:40:12.391Z,99322.00
2024-02-15T04:42:42.215Z,99315.91
2024-02-15T04:45:11.438Z,99306.38
2024-02-15T04:47:38.596Z,99305.50
2024-02-15T04:50:07.522Z,99297.75
2024-02-15T04:52:34.818Z,99306.41
2024-02-15T04:55:02.341Z,99307.25
2024-02-15T04:57:34.458Z,99301.13
2024-02-15T05:00:01.355Z,99308.06
2024-02-15T05:02:28.332Z,99301.97
2024-02-15T05:04:58.376Z,99302.81
2024-02-15T05:07:25.439Z,99291.53
2024-02-15T05:09:53.369Z,99287.19
2024-02-15T05:12:27.075Z,99291.50
2024-02-15T05:14:55.052Z,99275.88
2024-02-15T05:17:23.505Z,99274.16
2024-02-15T05:19:53.738Z,99273.28
2024-02-15T05:22:20.680Z,99272.38
2024-02-15T05:24:47.488Z,99272.38
2024-02-15T05:27:14.524Z,99261.06
2024-02-15T05:29:44.656Z,99265.38
2024-02-15T05:32:12.089Z,99261.03
2024-02-15T05:34:41.523Z,99259.28
2024-02-15T05:37:08.944Z,99264.44
2024-02-15T05:39:35.796Z,99264.44
2024-02-15T05:42:02.901Z,99258.34
2024-02-15T05:44:29.952Z,99259.19
2024-02-15T05:46:57.667Z,99259.16
2024-02-15T05:49:25.441Z,99257.41
2024-02-15T05:51:54.929Z,99262.63
2024-02-15T05:54:24.483Z,99259.13
2024-02-15T05:56:53.896Z,99255.63
2024-02-15T05:59:22.164Z,99253.03
2024-02-15T06:01:52.284Z,99248.63
2024-02-15T06:04:19.747Z,99247.78
2024-02-15T06:06:50.550Z,99254.69
2024-02-15T06:09:18.628Z,99245.16
2024-02-15T06:11:47.081Z,99237.38
2024-02-15T06:14:14.332Z,99238.22
2024-02-15T06:16:47.147Z,99239.03
2024-02-15T06:19:16.082Z,99241.59
2024-02-15T06:21:43.660Z,99238.94
2024-02-15T06:24:11.854Z,99244.13
2024-02-15T06:26:38.967Z,99243.22
2024-02-15T06:29:24.591Z,99238.88
2024-02-15T06:32:09.759Z,99243.19
2024-02-15T06:34:55.142Z,99240.56
2024-02-15T06:37:57.057Z,99239.63
2024-02-15T06:40:23.939Z,99231.78
2024-02-15T06:42:51.500Z,99245.66
2024-02-15T06:45:19.258Z,99238.69
2024-02-15T06:47:46.306Z,99243.84
2024-02-15T06:50:18.231Z,99236.00
2024-02-15T06:52:46.245Z,99232.50
2024-02-15T06:55:13.572Z,99231.59
2024-02-15T06:57:43.142Z,99230.69
2024-02-15T07:00:16.532Z,99228.06
2024-02-15T07:02:45.778Z,99237.53
2024-02-15T07:05:13.244Z,99228.81
2024-02-15T07:07:40.509Z,99221.88
2024-02-15T07:10:07.975Z,99234.00
2024-02-15T07:12:34.949Z,99233.09
2024-02-15T07:15:07.296Z,99227.00
2024-02-15T07:17:34.350Z,99225.19
2024-02-15T07:20:01.435Z,99226.03
2024-02-15T07:22:28.333Z,99241.69
2024-02-15T07:24:55.180Z,99241.63
2024-02-15T07:27:24.869Z,99230.28
2024-02-15T07:29:51.893Z,99230.28
2024-02-15T07:32:19.265Z,99224.16
2024-02-15T07:34:46.941Z,99230.19
2024-02-15T07:37:14.067Z,99217.16
2024-02-15T07:39:41.412Z,99222.31
2024-02-15T07:42:10.000Z,99223.19
2024-02-15T07:44:38.020Z,99230.91
2024-02-15T07:47:06.026Z,99233.50
2024-02-15T07:49:35.007Z,99228.25
2024-02-15T07:52:02.048Z,99223.91
2024-02-15T07:54:31.106Z,99224.66
2024-02-15T07:56:59.514Z,99218.56
2024-02-15T07:59:26.678Z,99226.31
2024-02-15T08:01:53.612Z,99225.38
2024-02-15T08:04:24.504Z,99214.88
2024-02-15T08:06:54.836Z,99227.84
2024-02-15T08:09:25.288Z,99226.00
2024-02-15T08:11:52.560Z,99225.13
2024-02-15T08:14:21.894Z,99225.91
2024-02-15T08:16:48.794Z,99224.13
2024-02-15T08:19:15.864Z,99217.97
2024-02-15T08:21:43.502Z,99221.41
2024-02-15T08:24:10.722Z,99223.91
2024-02-15T08:26:43.242Z,99219.50
2024-02-15T08:29:10.724Z,99220.31
2024-02-15T08:31:37.950Z,99229.00
2024-02-15T08:34:11.541Z,99231.56
2024-02-15T08:36:41.112Z,99226.28
2024-02-15T08:39:09.613Z,99228.00
2024-02-15T08:41:36.804Z,99233.16
2024-02-15T08:44:07.363Z,99230.56
2024-02-15T08:46:34.264Z,99226.16
2024-02-15T08:49:02.182Z,99226.09
2024-02-15T08:51:29.338Z,99215.63
2024-02-15T08:53:58.871Z,99216.44
2024-02-15T08:56:26.514Z,99213.78
2024-02-15T08:58:53.432Z,99212.88
2024-02-15T09:01:20.448Z,99211.03
2024-02-15T09:03:47.520Z,99204.91
2024-02-15T09:06:14.804Z,99204.81
2024-02-15T09:08:41.914Z,99207.34
2024-02-15T09:11:13.422Z,99208.19
2024-02-15T09:13:40.442Z,99201.13
2024-02-15T09:16:07.459Z,99194.09
2024-02-15T09:18:35.164Z,99190.53
2024-02-15T09:21:02.308Z,99194.84
2024-02-15T09:23:29.179Z,99204.31
2024-02-15T09:25:56.102Z,99205.16
2024-02-15T09:28:25.899Z,99208.56
2024-02-15T09:30:52.989Z,99200.81
2024-02-15T09:33:21.556Z,99200.81
2024-02-15T09:35:49.343Z,99201.66
2024-02-15T09:38:18.146Z,99192.97
2024-02-15T09:40:45.770Z,99185.09
2024-02-15T09:43:14.571Z,99196.34
2024-02-15T09:45:41.656Z,99201.41
2024-02-15T09:48:11.825Z,99183.97
2024-02-15T09:50:44.138Z,99177.75
2024-02-15T09:53:11.198Z,99168.94
2024-02-15T09:55:42.725Z,99161.84
2024-02-15T09:58:10.584Z,99159.97
2024-02-15T10:00:37.840Z,99155.50
2024-02-15T10:03:08.118Z,99152.78
2024-02-15T10:05:36.040Z,99144.88
2024-02-15T10:08:04.237Z,99137.84
2024-02-15T10:10:31.086Z,99147.25
2024-02-15T10:12:58.213Z,99135.88
2024-02-15T10:15:36.441Z,99136.66
2024-02-15T10:18:06.355Z,99143.53
2024-02-15T10:20:35.630Z,99140.81
2024-02-15T10:23:03.310Z,99119.94
2024-02-15T10:25:30.821Z,99118.13
2024-02-15T10:28:08.766Z,99126.84
2024-02-15T10:30:37.396Z,99116.31
2024-02-15T10:33:05.494Z,99110.13
2024-02-15T10:35:36.610Z,99116.13
2024-02-15T10:38:09.143Z,99115.16
2024-02-15T10:40:36.400Z,99116.78
2024-02-15T10:43:09.569Z,99107.94
2024-02-15T10:45:41.156Z,99113.84
2024-02-15T10:48:17.004Z,99104.13
2024-02-15T10:50:49.314Z,99099.53
2024-02-15T10:53:28.832Z,99104.53
2024-02-15T10:56:18.215Z,99096.47
2024-02-15T10:59:17.537Z,99094.47
2024-02-15T11:01:49.395Z,99097.75
2024-02-15T11:04:18.897Z,99093.19
2024-02-15T11:06:46.854Z,99096.53
2024-02-15T11:09:15.096Z,99090.25
2024-02-15T11:11:42.891Z,99096.97
2024-02-15T11:14:27.787Z,99102.81
2024-02-15T11:16:54.749Z,99098.25
2024-02-15T11:19:34.112Z,99091.03
2024-02-15T11:22:04.930Z,99098.81
2024-02-15T11:24:37.514Z,99084.81
2024-02-15T11:27:06.634Z,99089.84
2024-02-15T11:29:57.626Z,99090.59
2024-02-15T11:32:57.513Z,99074.63
2024-02-15T11:35:26.814Z,99084.91
2024-02-15T11:37:59.594Z,99081.25
2024-02-15T11:40:50.650Z,99076.94
2024-02-15T11:43:53.493Z,99092.69
2024-02-15T11:46:21.192Z,99076.81
2024-02-15T11:48:52.567Z,99068.00
2024-02-15T11:51:38.713Z,99068.84
2024-02-15T11:54:07.945Z,99070.66
2024-02-15T11:57:06.041Z,99059.16
2024-02-15T11:59:44.414Z,99052.13
2024-02-15T12:02:30.194Z,99041.59
2024-02-15T12:05:15.512Z,99044.94
2024-02-15T12:08:01.225Z,99036.09
2024-02-15T12:10:46.539Z,99031.78
2024-02-15T12:13:37.564Z,99025.72
2024-02-15T12:16:23.250Z,99031.78
2024-02-15T12:18:54.207Z,99024.84
2024-02-15T12:21:29.214Z,99010.88
2024-02-15T12:23:57.426Z,99016.94
2024-02-15T12:26:25.238Z,99012.44
2024-02-15T12:28:56.314Z,99007.97
2024-02-15T12:31:27.659Z,99011.38
2024-02-15T12:34:08.604Z,99007.72
2024-02-15T12:36:39.809Z,98993.66
2024-02-15T12:39:18.847Z,98999.59
2024-02-15T12:41:51.317Z,98987.22
2024-02-15T12:44:21.742Z,98981.84
2024-02-15T12:46:49.313Z,98980.00
2024-02-15T12:49:22.241Z,98975.63
2024-02-15T12:51:53.972Z,98979.16
2024-02-15T12:54:22.676Z,98974.78
2024-02-15T12:56:55.543Z,98979.16
2024-02-15T12:59:22.496Z,98980.88
2024-02-15T13:01:49.926Z,98990.41
2024-02-15T13:04:26.533Z,98992.91
2024-02-15T13:06:53.473Z,98992.63
2024-02-15T13:09:20.464Z,98990.78
2024-02-15T13:11:48.397Z,98984.63
2024-02-15T13:14:15.236Z,98981.88
2024-02-15T13:16:44.640Z,98989.63
2024-02-15T13:19:11.609Z,98986.03
2024-02-15T13:21:38.460Z,98986.75
2024-02-15T13:24:06.255Z,98982.44
2024-02-15T13:26:35.275Z,98976.34
2024-02-15T13:29:02.101Z,98980.66
2024-02-15T13:31:28.896Z,98976.47
2024-02-15T13:33:55.910Z,98961.78
2024-02-15T13:36:23.339Z,98969.63
2024-02-15T13:38:52.907Z,98969.69
2024-02-15T13:41:19.973Z,98970.63
2024-02-15T13:43:47.028Z,98967.84
2024-02-15T13:46:13.907Z,98964.22
2024-02-15T13:48:42.019Z,98956.97
2024-02-15T13:51:10.671Z,98957.53
2024-02-15T13:53:37.719Z,98952.13
2024-02-15T13:56:06.624Z,98943.44
2024-02-15T13:58:34.244Z,98952.44
2024-02-15T14:01:04.453Z,98941.41
2024-02-15T14:03:31.917Z,98943.28
2024-02-15T14:05:59.148Z,98946.81
2024-02-15T14:08:26.992Z,98954.41
2024-02-15T14:10:53.905Z,98951.66
2024-02-15T14:13:23.212Z,98962.06
2024-02-15T14:15:50.445Z,98949.94
2024-02-15T14:18:20.955Z,98956.25
2024-02-15T14:20:49.011Z,98946.00
2024-02-15T14:23:16.716Z,98944.50
2024-02-15T14:25:44.463Z,98944.72
2024-02-15T14:28:11.677Z,98939.56
2024-02-15T14:30:58.947Z,98935.31
2024-02-15T14:33:33.119Z,98929.38
2024-02-15T14:36:01.768Z,98935.59
2024-02-15T14:38:29.100Z,98927.94
2024-02-15T14:40:57.082Z,98928.22
2024-02-15T14:43:27.104Z,98929.44
2024-02-15T14:45:55.449Z,98932.19
2024-02-15T14:48:22.922Z,98923.53
2024-02-15T14:50:52.720Z,98925.50
2024-02-15T14:53:20.418Z,98927.34
2024-02-15T14:55:47.777Z,98922.25
2024-02-15T14:58:18.316Z,98917.97
2024-02-15T15:00:46.741Z,98921.50
2024-02-15T15:03:15.083Z,98919.03
2024-02-15T15:06:02.191Z,98926.88
2024-02-15T15:08:47.345Z,98909.50
2024-02-15T15:11:33.297Z,98918.25
2024-02-15T15:14:00.211Z,98902.69
2024-02-15T15:16:29.399Z,98907.13
2024-02-15T15:18:57.587Z,98914.06
2024-02-15T15:21:25.348Z,98910.66
2024-02-15T15:23:53.331Z,98909.03
2024-02-15T15:26:21.750Z,98914.28
2024-02-15T15:28:49.662Z,98916.75
2024-02-15T15:31:17.150Z,98907.06
2024-02-15T15:33:45.150Z,98912.31
2024-02-15T15:36:12.846Z,98911.38
2024-02-15T15:38:40.824Z,98908.78
2024-02-15T15:41:10.862Z,98906.09
2024-02-15T15:43:38.971Z,98904.38
2024-02-15T15:46:06.752Z,98907.91
2024-02-15T15:48:34.661Z,98909.75
2024-02-15T15:51:06.581Z,98905.44
2024-02-15T15:53:35.536Z,98901.13
2024-02-15T15:56:02.986Z,98903.88
2024-02-15T15:58:31.242Z,98902.19
2024-02-15T16:00:58.214Z,98904.94
2024-02-15T16:03:25.226Z,98903.31
2024-02-15T16:05:52.490Z,98902.59
2024-02-15T16:08:19.422Z,98900.09
2024-02-15T16:10:46.907Z,98909.72
2024-02-15T16:13:14.111Z,98896.78
2024-02-15T16:15:45.101Z,98904.09
2024-02-15T16:18:12.178Z,98901.69
2024-02-15T16:20:39.802Z,98898.41
2024-02-15T16:23:07.743Z,98893.38
2024-02-15T16:25:35.452Z,98896.13
2024-02-15T16:28:03.701Z,98899.78
2024-02-15T16:30:30.698Z,98889.53
2024-02-15T16:32:57.724Z,98900.03
2024-02-15T16:35:24.667Z,98901.00
2024-02-15T16:37:51.605Z,98899.44
2024-02-15T16:40:18.477Z,98903.03
2024-02-15T16:42:48.821Z,98906.69
2024-02-15T16:45:20.990Z,98911.13
2024-02-15T16:47:57.897Z,98904.19
2024-02-15T16:50:25.631Z,98904.38
2024-02-15T16:52:53.224Z,98907.13
2024-02-15T16:55:29.595Z,98905.47
2024-02-15T16:58:09.572Z,98905.59
2024-02-15T17:00:38.030Z,98921.41
2024-02-15T17:03:08.190Z,98917.22
2024-02-15T17:05:39.574Z,98919.81
2024-02-15T17:08:08.322Z,98919.88
2024-02-15T17:10:36.976Z,98930.50
2024-02-15T17:13:05.497Z,98922.78
2024-02-15T17:15:33.191Z,98929.81
2024-02-15T17:18:00.415Z,98933.34
2024-02-15T17:20:27.410Z,98929.94
2024-02-15T17:22:54.399Z,98932.59
2024-02-15T17:25:26.463Z,98923.97
2024-02-15T17:27:56.900Z,98931.88
2024-02-15T17:30:25.019Z,98934.53
2024-02-15T17:32:52.276Z,98937.22
2024-02-15T17:35:20.505Z,98928.59
2024-02-15T17:37:47.365Z,98928.72
2024-02-15T17:40:15.295Z,98934.03
2024-02-15T17:42:43.910Z,98929.72
2024-02-15T17:45:12.833Z,98937.63
2024-02-15T17:47:41.644Z,98927.25
2024-02-15T17:50:15.506Z,98923.00
2024-02-15T17:52:45.085Z,98931.72
2024-02-15T17:55:12.304Z,98923.16
2024-02-15T17:57:39.936Z,98932.75
2024-02-15T18:00:21.089Z,98940.69
2024-02-15T18:02:52.786Z,98933.00
2024-02-15T18:05:21.492Z,98937.28
2024-02-15T18:07:49.912Z,98944.34
2024-02-15T18:10:21.526Z,98949.56
2024-02-15T18:12:48.546Z,98952.22
2024-02-15T18:15:26.068Z,98958.34
2024-02-15T18:17:58.153Z,98952.34
2024-02-15T18:20:26.108Z,98951.59
2024-02-15T18:22:53.720Z,98962.94
2024-02-15T18:25:21.078Z,98955.22
2024-02-15T18:27:48.734Z,98960.50
2024-02-15T18:30:19.914Z,98959.66
2024-02-15T18:32:48.259Z,98955.34
2024-02-15T18:35:17.860Z,98955.41
2024-02-15T18:37:46.813Z,98958.13
2024-02-15T18:40:22.787Z,98954.72
2024-02-15T18:42:52.886Z,98960.91
2024-02-15T18:45:20.498Z,98956.59
2024-02-15T18:47:47.668Z,98954.91
2024-02-15T18:50:17.057Z,98955.84
2024-02-15T18:52:44.754Z,98957.63
2024-02-15T18:55:13.489Z,98944.66
2024-02-15T18:57:40.513Z,98945.56
2024-02-15T19:00:16.315Z,98948.22
2024-02-15T19:02:53.273Z,98959.66
2024-02-15T19:05:23.870Z,98957.22
2024-02-15T19:07:52.135Z,98946.06
2024-02-15T19:10:21.121Z,98953.88
2024-02-15T19:12:48.300Z,98950.53
2024-02-15T19:15:15.969Z,98956.59
2024-02-15T19:17:43.145Z,98961.81
2024-02-15T19:20:10.719Z,98964.53
2024-02-15T19:22:41.441Z,98957.66
2024-02-15T19:25:08.480Z,98955.97
2024-02-15T19:27:35.462Z,98963.84
2024-02-15T19:30:03.949Z,98966.50
2024-02-15T19:32:30.876Z,98964.78
2024-02-15T19:34:57.945Z,98966.59
2024-02-15T19:37:25.555Z,98971.75
2024-02-15T19:39:53.812Z,98975.28
2024-02-15T19:42:20.850Z,98970.97
2024-02-15T19:44:48.064Z,98973.56
2024-02-15T19:47:19.610Z,98986.66
2024-02-15T19:49:47.263Z,98989.25
2024-02-15T19:52:15.939Z,98980.63
2024-02-15T19:54:42.847Z,98978.03
2024-02-15T19:57:09.770Z,98971.91
2024-02-15T19:59:36.615Z,98965.00
2024-02-15T20:02:04.065Z,98969.38
2024-02-15T20:04:34.622Z,98961.53
2024-02-15T20:07:04.355Z,98966.81
2024-02-15T20:09:40.425Z,98971.13
2024-02-15T20:12:15.181Z,98972.06
2024-02-15T20:14:42.831Z,98975.59
2024-02-15T20:17:11.814Z,98975.66
2024-02-15T20:19:39.532Z,98972.19
2024-02-15T20:22:08.532Z,98975.59
2024-02-15T20:24:39.048Z,98970.50
2024-02-15T20:27:06.240Z,98976.56
2024-02-15T20:29:34.160Z,98967.91
2024-02-15T20:32:01.173Z,98980.00
2024-02-15T20:34:28.368Z,98969.59
2024-02-15T20:36:55.346Z,98963.53
2024-02-15T20:39:23.003Z,98954.81
2024-02-15T20:41:50.753Z,98955.72
2024-02-15T20:44:21.086Z,98967.03
2024-02-15T20:46:48.013Z,98968.78
2024-02-15T20:49:15.258Z,98971.41
2024-02-15T20:51:42.411Z,98978.31
2024-02-15T20:54:09.414Z,98990.50
2024-02-15T20:56:38.095Z,98974.00
2024-02-15T20:59:08.610Z,98981.81
2024-02-15T21:01:38.081Z,98983.56
2024-02-15T21:04:06.902Z,98982.72
2024-02-15T21:06:39.047Z,98987.94
2024-02-15T21:09:14.589Z,98988.00
2024-02-15T21:11:43.381Z,98990.59
2024-02-15T21:14:12.523Z,98988.84
2024-02-15T21:16:39.391Z,98991.50
2024-02-15T21:19:10.639Z,98990.66
2024-02-15T21:21:38.265Z,98989.00
2024-02-15T21:24:06.958Z,98998.56
2024-02-15T21:26:34.369Z,98999.47
2024-02-15T21:29:01.285Z,99007.28
2024-02-15T21:31:28.151Z,99002.97
2024-02-15T21:33:55.678Z,99004.72
2024-02-15T21:36:24.163Z,99004.78
2024-02-15T21:38:54.372Z,99006.59
2024-02-15T21:41:22.525Z,99001.38
2024-02-15T21:43:49.452Z,99003.13
2024-02-15T21:46:16.528Z,99005.72
2024-02-15T21:48:44.005Z,99005.72
2024-02-15T21:51:10.968Z,99011.00
2024-02-15T21:53:39.544Z,99011.91
2024-02-15T21:56:06.759Z,99006.69
2024-02-15T21:58:33.646Z,99008.38
2024-02-15T22:01:01.391Z,99008.44
2024-02-15T22:03:28.389Z,99013.66
2024-02-15T22:05:55.406Z,99018.84
2024-02-15T22:08:23.142Z,99026.72
2024-02-15T22:10:50.615Z,99019.75
2024-02-15T22:13:19.292Z,99035.44
2024-02-15T22:15:48.768Z,99044.16
2024-02-15T22:18:15.984Z,99046.75
2024-02-15T22:20:43.107Z,99045.97
2024-02-15T22:23:10.595Z,99043.34
2024-02-15T22:25:38.898Z,99046.97
2024-02-15T22:28:07.145Z,99042.75
2024-02-15T22:30:34.049Z,99039.28
2024-02-15T22:33:01.141Z,99045.44
2024-02-15T22:35:28.258Z,99044.63
2024-02-15T22:37:55.539Z,99047.28
2024-02-15T22:40:22.513Z,99055.09
2024-02-15T22:42:49.570Z,99049.94
2024-02-15T22:45:16.660Z,99059.50
2024-02-15T22:47:44.896Z,99061.31
2024-02-15T22:50:12.661Z,99056.16
2024-02-15T22:52:40.522Z,99056.16
2024-02-15T22:55:07.830Z,99059.66
2024-02-15T22:57:34.783Z,99062.31
2024-02-15T23:00:02.292Z,99071.00
2024-02-15T23:02:29.624Z,99072.75
2024-02-15T23:04:56.754Z,99072.75
2024-02-15T23:07:24.933Z,99083.22
2024-02-15T23:09:52.143Z,99077.22
2024-02-15T23:12:19.094Z,99079.88
2024-02-15T23:14:46.098Z,99084.22
2024-02-15T23:17:13.235Z,99084.28
2024-02-15T23:19:40.989Z,99093.84
2024-02-15T23:22:11.506Z,99104.34
2024-02-15T23:24:38.916Z,99107.00
2024-02-15T23:27:06.857Z,99108.78
2024-02-15T23:29:34.013Z,99106.22
2024-02-15T23:32:00.876Z,99107.16
2024-02-15T23:34:27.762Z,99107.22
2024-02-15T23:37:13.126Z,99105.56
2024-02-15T23:39:58.584Z,99107.38
2024-02-15T23:42:25.686Z,99112.63
2024-02-15T23:44:53.061Z,99114.44
2024-02-15T23:47:20.097Z,99119.72
2024-02-15T23:49:46.942Z,99117.22
2024-02-15T23:52:13.851Z,99118.16
2024-02-15T23:54:40.777Z,99116.34
2024-02-15T23:57:08.067Z,99116.44
2024-02-15T23:59:35.229Z,99114.84
